Time;durP1;ratioP1;P1;durP2;ratioP2;P2;SDS_P1;SDS_P2;PMS_P1;PMS_P2;Temp;Humidity;BMP_temperature;BMP_pressure;BME280_temperature;BME280_humidity;BME280_pressure;Samples;Min_cycle;Max_cycle;Signal;HPM_P1;HPM_P2
2021/06/08 00:01:56;;;;;;;15.80;12.77;;;;;;;14.19;100.00;101374.56;5210489;28;20112;-79
2021/06/08 00:04:27;;;;;;;16.30;13.60;;;;;;;14.35;100.00;101381.84;5195225;28;20024;-79
2021/06/08 00:06:57;;;;;;;17.20;13.30;;;;;;;14.40;100.00;101379.88;5199061;28;20029;-79
2021/06/08 00:09:27;;;;;;;18.65;13.85;;;;;;;14.18;100.00;101383.38;5206035;28;20020;-79
2021/06/08 00:11:58;;;;;;;17.50;14.15;;;;;;;14.27;100.00;101380.41;5213142;28;20057;-79
2021/06/08 00:14:28;;;;;;;18.20;13.88;;;;;;;14.44;100.00;101383.28;5210261;28;20029;-79
2021/06/08 00:16:58;;;;;;;21.38;15.98;;;;;;;14.31;100.00;101374.13;5213301;28;20040;-79
2021/06/08 00:19:29;;;;;;;19.98;15.13;;;;;;;14.39;100.00;101378.19;5206571;28;20028;-78
2021/06/08 00:21:59;;;;;;;19.73;15.32;;;;;;;14.35;100.00;101383.59;5189995;28;20471;-79
2021/06/08 00:24:29;;;;;;;24.33;17.35;;;;;;;14.15;100.00;101373.81;5212977;28;20029;-79
2021/06/08 00:27:00;;;;;;;16.75;14.43;;;;;;;14.28;100.00;101376.88;5210227;28;20029;-79
2021/06/08 00:29:30;;;;;;;17.60;13.43;;;;;;;13.94;100.00;101373.75;5194646;28;20153;-78
2021/06/08 00:32:00;;;;;;;18.60;13.63;;;;;;;13.96;100.00;101364.03;5189730;28;20043;-79
2021/06/08 00:34:31;;;;;;;21.70;15.70;;;;;;;14.08;100.00;101369.69;5209345;28;20021;-79
2021/06/08 00:37:01;;;;;;;34.25;15.85;;;;;;;14.31;100.00;101379.38;5213931;28;20021;-78
2021/06/08 00:39:31;;;;;;;22.65;17.65;;;;;;;14.07;100.00;101372.41;5212899;28;20043;-78
2021/06/08 00:42:02;;;;;;;33.13;23.23;;;;;;;14.13;100.00;101370.41;5217511;28;20080;-78
2021/06/08 00:44:33;;;;;;;29.25;23.33;;;;;;;14.08;100.00;101374.09;5212786;28;20308;-79
2021/06/08 00:47:03;;;;;;;27.80;21.83;;;;;;;14.30;100.00;101368.03;5213176;28;20029;-79
2021/06/08 00:49:33;;;;;;;33.28;22.55;;;;;;;14.13;100.00;101372.16;5217350;28;20074;-78
2021/06/08 00:52:04;;;;;;;35.88;25.08;;;;;;;14.13;100.00;101369.53;5205237;28;20029;-79
2021/06/08 00:54:34;;;;;;;35.40;25.23;;;;;;;14.16;100.00;101365.06;5208643;28;20155;-77
2021/06/08 00:57:05;;;;;;;35.22;25.52;;;;;;;14.22;100.00;101354.28;5214879;28;20104;-78
2021/06/08 00:59:36;;;;;;;38.13;26.30;;;;;;;14.37;100.00;101361.59;5208711;28;20025;-79
2021/06/08 01:02:06;;;;;;;39.40;26.80;;;;;;;14.44;100.00;101359.59;5208614;28;20063;-78
2021/06/08 01:04:37;;;;;;;38.97;28.05;;;;;;;14.39;100.00;101351.03;5210320;28;20029;-79
2021/06/08 01:07:07;;;;;;;34.47;25.70;;;;;;;14.39;100.00;101353.66;5216272;28;20036;-79
2021/06/08 01:09:37;;;;;;;34.53;26.90;;;;;;;14.48;100.00;101348.03;5212824;28;20557;-78
2021/06/08 01:12:08;;;;;;;35.88;27.20;;;;;;;14.38;100.00;101338.78;5216368;28;20221;-78
2021/06/08 01:14:38;;;;;;;30.85;23.90;;;;;;;14.52;100.00;101349.63;5212830;28;20152;-79
2021/06/08 01:17:09;;;;;;;31.15;25.05;;;;;;;14.61;100.00;101342.22;5215406;28;20032;-79
2021/06/08 01:19:39;;;;;;;31.13;24.02;;;;;;;14.77;100.00;101339.84;5210454;28;20024;-78
2021/06/08 01:22:10;;;;;;;29.15;22.67;;;;;;;14.81;100.00;101338.78;5213137;28;20163;-79
2021/06/08 01:24:43;;;;;;;26.95;21.13;;;;;;;14.81;100.00;101341.44;5216539;28;20026;-80
2021/06/08 01:27:14;;;;;;;26.75;21.15;;;;;;;14.82;100.00;101342.22;5216826;28;20037;-80
2021/06/08 01:29:45;;;;;;;34.55;24.27;;;;;;;14.58;100.00;101346.78;5212624;28;20499;-80
2021/06/08 01:32:17;;;;;;;32.17;24.80;;;;;;;14.59;100.00;101343.22;5198389;28;20079;-80
2021/06/08 01:34:48;;;;;;;32.47;24.10;;;;;;;14.68;100.00;101335.81;5200127;28;20029;-80
2021/06/08 01:37:19;;;;;;;33.17;23.95;;;;;;;14.77;100.00;101338.06;5200361;28;20029;-79
2021/06/08 01:39:49;;;;;;;36.05;24.02;;;;;;;14.87;100.00;101329.72;5217127;28;20025;-80
2021/06/08 01:42:20;;;;;;;34.15;23.30;;;;;;;15.02;100.00;101329.09;5226098;22;20088;-78
2021/06/08 01:44:50;;;;;;;32.28;22.50;;;;;;;14.92;100.00;101333.03;5196011;28;20026;-78
2021/06/08 01:47:21;;;;;;;31.55;21.45;;;;;;;14.91;100.00;101330.47;5190594;28;20025;-77
2021/06/08 01:49:51;;;;;;;30.45;21.75;;;;;;;14.88;100.00;101328.78;5195250;28;20430;-77
2021/06/08 01:52:46;;;;;;;32.78;23.00;;;;;;;14.93;100.00;101329.50;5196544;28;20029;-78
2021/06/08 01:55:24;;;;;;;33.55;22.83;;;;;;;14.94;100.00;101336.47;5192660;28;20088;-77
2021/06/08 01:58:22;;;;;;;37.03;23.40;;;;;;;14.82;100.00;101322.09;5196007;28;20040;-77
2021/06/08 02:01:00;;;;;;;35.92;24.15;;;;;;;14.79;100.00;101323.06;5196067;28;20061;-77
2021/06/08 02:03:32;;;;;;;35.88;24.30;;;;;;;14.86;100.00;101325.38;5196866;28;20556;-78
2021/06/08 02:06:29;;;;;;;35.75;24.35;;;;;;;14.77;100.00;101331.94;5192056;28;20690;-78
2021/06/08 02:08:59;;;;;;;31.15;22.30;;;;;;;15.03;100.00;101333.44;5176242;28;20376;-78
2021/06/08 02:11:41;;;;;;;27.67;21.63;;;;;;;15.14;100.00;101323.31;5195751;28;20025;-78
2021/06/08 02:14:24;;;;;;;33.90;24.10;;;;;;;15.23;100.00;101327.34;5192299;28;20021;-78
2021/06/08 02:17:00;;;;;;;27.95;20.73;;;;;;;15.27;100.00;101331.56;5191588;28;20087;-78
2021/06/08 02:19:32;;;;;;;32.85;22.30;;;;;;;15.22;100.00;101334.38;5190945;28;20024;-78
2021/06/08 02:22:06;;;;;;;28.80;21.13;;;;;;;15.25;100.00;101331.63;5195564;28;20467;-78
2021/06/08 02:24:37;;;;;;;31.73;22.80;;;;;;;15.16;100.00;101334.63;5191207;28;20040;-78
2021/06/08 02:27:12;;;;;;;34.70;25.73;;;;;;;15.34;100.00;101338.31;5193877;28;20383;-78
2021/06/08 02:29:46;;;;;;;35.13;26.48;;;;;;;15.36;100.00;101339.94;5192846;28;20048;-77
2021/06/08 02:32:18;;;;;;;40.50;27.70;;;;;;;15.40;100.00;101341.53;5194611;28;20033;-78
2021/06/08 02:34:50;;;;;;;37.05;27.65;;;;;;;15.37;100.00;101339.03;5192661;28;20546;-78
2021/06/08 02:37:21;;;;;;;38.70;28.52;;;;;;;15.46;100.00;101335.13;5193065;28;20475;-78
2021/06/08 02:39:53;;;;;;;50.85;36.13;;;;;;;15.45;100.00;101338.69;5192579;28;20076;-78
2021/06/08 02:42:24;;;;;;;52.60;39.78;;;;;;;15.47;100.00;101336.84;5193584;28;20595;-78
2021/06/08 02:44:57;;;;;;;45.33;34.58;;;;;;;15.51;100.00;101336.66;5192652;28;20377;-77
2021/06/08 02:47:28;;;;;;;47.92;35.38;;;;;;;15.59;100.00;101339.81;5191437;28;20033;-77
2021/06/08 02:49:59;;;;;;;49.05;37.30;;;;;;;15.64;100.00;101344.88;5194560;28;20638;-78
2021/06/08 02:52:31;;;;;;;47.22;35.63;;;;;;;15.72;100.00;101340.13;5191476;28;20029;-78
2021/06/08 02:55:04;;;;;;;42.80;33.35;;;;;;;15.68;100.00;101335.94;5195069;28;20021;-77
2021/06/08 02:57:36;;;;;;;46.80;36.25;;;;;;;15.76;100.00;101339.94;5183823;28;20100;-78
2021/06/08 03:00:08;;;;;;;45.80;34.95;;;;;;;15.70;100.00;101336.72;5191969;28;20029;-78
2021/06/08 03:02:41;;;;;;;47.05;34.92;;;;;;;15.69;100.00;101345.56;5193887;28;20414;-78
2021/06/08 03:05:17;;;;;;;46.92;36.28;;;;;;;15.68;100.00;101349.94;5191153;28;20036;-78
2021/06/08 03:07:52;;;;;;;40.75;32.60;;;;;;;15.66;100.00;101346.53;5175311;28;20060;-78
2021/06/08 03:10:26;;;;;;;43.83;34.55;;;;;;;15.74;100.00;101347.03;5193307;28;20566;-78
2021/06/08 03:12:58;;;;;;;47.55;34.55;;;;;;;15.69;100.00;101350.81;5191306;28;20030;-78
2021/06/08 03:15:36;;;;;;;42.47;31.88;;;;;;;15.71;100.00;101346.34;5186895;28;20226;-78
2021/06/08 03:18:10;;;;;;;46.88;34.03;;;;;;;15.62;100.00;101346.72;5186390;28;20030;-78
2021/06/08 03:20:56;;;;;;;39.05;30.58;;;;;;;15.58;100.00;101350.41;5193315;28;20048;-78
2021/06/08 03:23:30;;;;;;;44.72;31.90;;;;;;;15.21;100.00;101345.81;5193024;28;20583;-79
2021/06/08 03:26:03;;;;;;;43.53;31.55;;;;;;;14.93;100.00;101350.56;5190671;28;20036;-78
2021/06/08 03:28:35;;;;;;;41.95;29.95;;;;;;;15.14;100.00;101354.91;5193702;28;20448;-77
2021/06/08 03:31:06;;;;;;;45.58;31.10;;;;;;;14.93;100.00;101363.72;5193000;28;20084;-77
2021/06/08 03:33:38;;;;;;;43.92;31.85;;;;;;;14.94;100.00;101362.78;5195101;28;20117;-78
2021/06/08 03:36:11;;;;;;;38.15;28.75;;;;;;;15.13;100.00;101358.47;5191229;28;20387;-78
2021/06/08 03:38:42;;;;;;;37.38;26.98;;;;;;;15.21;100.00;101361.63;5193374;28;20116;-77
2021/06/08 03:41:14;;;;;;;38.17;28.40;;;;;;;15.35;100.00;101354.03;5183855;28;20018;-78
2021/06/08 03:43:45;;;;;;;39.17;28.63;;;;;;;15.44;100.00;101352.78;5184066;28;20053;-78
2021/06/08 03:46:16;;;;;;;46.08;33.78;;;;;;;15.42;100.00;101359.91;5192021;28;20621;-77
2021/06/08 03:48:46;;;;;;;39.13;30.92;;;;;;;15.43;100.00;101354.59;5191774;28;20025;-78
2021/06/08 03:51:18;;;;;;;42.22;31.92;;;;;;;15.59;100.00;101355.63;5192551;28;20083;-78
2021/06/08 03:53:48;;;;;;;43.42;32.95;;;;;;;15.65;100.00;101355.34;5191985;28;20065;-78
2021/06/08 03:56:19;;;;;;;44.78;33.72;;;;;;;15.59;100.00;101363.53;5181520;28;20050;-78
2021/06/08 03:58:50;;;;;;;44.42;35.40;;;;;;;15.52;100.00;101353.34;5175887;28;20033;-77
2021/06/08 04:01:21;;;;;;;43.88;32.03;;;;;;;15.63;100.00;101365.13;5170351;28;20037;-78
2021/06/08 04:03:52;;;;;;;42.38;33.13;;;;;;;15.64;100.00;101366.81;5185724;28;20585;-77
2021/06/08 04:06:23;;;;;;;46.58;34.80;;;;;;;15.67;100.00;101361.41;5190979;28;20048;-78
2021/06/08 04:08:54;;;;;;;41.53;33.00;;;;;;;15.71;100.00;101368.25;5189898;28;20037;-79
2021/06/08 04:11:25;;;;;;;44.22;33.55;;;;;;;15.72;100.00;101369.13;5168278;28;20034;-77
2021/06/08 04:13:56;;;;;;;46.60;35.40;;;;;;;15.77;100.00;101361.88;5197049;28;20690;-78
2021/06/08 04:16:27;;;;;;;56.25;39.72;;;;;;;15.77;100.00;101361.88;5195344;28;20030;-78
2021/06/08 04:18:58;;;;;;;48.53;36.25;;;;;;;15.76;100.00;101361.03;5197063;28;20095;-77
2021/06/08 04:21:28;;;;;;;48.92;36.10;;;;;;;15.96;100.00;101363.63;5194931;28;20137;-78
2021/06/08 04:24:00;;;;;;;50.47;37.25;;;;;;;15.96;100.00;101363.63;5190077;28;20036;-78
2021/06/08 04:26:31;;;;;;;48.38;36.90;;;;;;;16.06;100.00;101354.34;5196335;28;20101;-77
2021/06/08 04:29:01;;;;;;;46.03;35.53;;;;;;;16.11;100.00;101355.03;5188298;28;20116;-78
2021/06/08 04:31:32;;;;;;;46.85;36.00;;;;;;;16.17;100.00;101357.38;5196645;28;20475;-78
2021/06/08 04:34:03;;;;;;;46.78;36.00;;;;;;;16.06;100.00;101350.88;5193612;28;20059;-77
2021/06/08 04:36:33;;;;;;;53.10;37.50;;;;;;;16.21;100.00;101352.81;5196780;28;20025;-78
2021/06/08 04:39:04;;;;;;;48.10;35.90;;;;;;;16.27;100.00;101356.03;5193122;28;20105;-78
2021/06/08 04:41:34;;;;;;;51.65;38.15;;;;;;;16.13;100.00;101352.31;5197402;28;20044;-78
2021/06/08 04:44:05;;;;;;;52.08;37.40;;;;;;;16.23;100.00;101361.50;5192915;28;20021;-78
2021/06/08 04:46:39;;;;;;;48.25;36.00;;;;;;;16.52;100.00;101356.63;5193200;28;20026;-78
2021/06/08 04:49:15;;;;;;;48.38;37.22;;;;;;;16.32;100.00;101346.13;5196052;28;20543;-78
2021/06/08 04:51:45;;;;;;;46.35;34.60;;;;;;;16.54;100.00;101357.41;5194994;28;20041;-79
2021/06/08 04:54:24;;;;;;;43.05;32.90;;;;;;;16.63;100.00;101356.09;5194918;28;20681;-78
2021/06/08 04:56:54;;;;;;;42.42;32.67;;;;;;;16.65;100.00;101359.53;5193469;28;20029;-77
2021/06/08 04:59:38;;;;;;;45.17;33.13;;;;;;;16.70;100.00;101350.44;5188614;28;20033;-78
2021/06/08 05:02:14;;;;;;;41.25;32.13;;;;;;;16.99;100.00;101349.91;5194199;28;20162;-78
2021/06/08 05:04:45;;;;;;;39.10;30.90;;;;;;;16.92;100.00;101361.69;5189430;28;20456;-78
2021/06/08 05:07:16;;;;;;;47.25;33.83;;;;;;;16.86;100.00;101364.63;5178376;28;20089;-78
2021/06/08 05:09:49;;;;;;;44.35;32.20;;;;;;;16.85;100.00;101365.56;5194551;28;20064;-77
2021/06/08 05:12:22;;;;;;;40.95;32.20;;;;;;;17.00;100.00;101364.81;5192436;28;20026;-78
2021/06/08 05:14:55;;;;;;;44.88;32.55;;;;;;;16.96;100.00;101365.91;5189195;28;20080;-78
2021/06/08 05:17:26;;;;;;;37.83;30.42;;;;;;;17.17;100.00;101370.13;5193663;28;20052;-79
2021/06/08 05:19:58;;;;;;;41.17;32.08;;;;;;;17.05;100.00;101362.78;5201149;28;20025;-78
2021/06/08 05:22:29;;;;;;;39.42;30.25;;;;;;;16.92;100.00;101365.19;5199442;28;20026;-79
2021/06/08 05:25:00;;;;;;;40.50;32.33;;;;;;;16.89;100.00;101364.47;5199483;28;20037;-78
2021/06/08 05:27:30;;;;;;;42.13;30.75;;;;;;;16.84;100.00;101369.97;5200007;28;20051;-78
2021/06/08 05:30:01;;;;;;;45.47;31.75;;;;;;;16.85;100.00;101368.19;5195908;28;20026;-78
2021/06/08 05:32:31;;;;;;;42.95;31.33;;;;;;;17.25;100.00;101363.53;5194914;28;20151;-79
2021/06/08 05:35:02;;;;;;;43.20;30.95;;;;;;;17.24;100.00;101371.50;5192824;28;20026;-78
2021/06/08 05:37:40;;;;;;;42.78;30.85;;;;;;;17.13;100.00;101377.34;5188582;28;20065;-79
2021/06/08 05:40:11;;;;;;;41.40;30.48;;;;;;;17.40;100.00;101368.06;5186303;28;20029;-78
2021/06/08 05:42:41;;;;;;;43.55;30.88;;;;;;;17.43;100.00;101372.31;5184683;28;20121;-78
2021/06/08 05:45:12;;;;;;;41.05;30.45;;;;;;;17.45;100.00;101370.47;5185418;28;20025;-78
2021/06/08 05:47:42;;;;;;;45.47;31.17;;;;;;;17.51;100.00;101372.81;5188591;28;20069;-78
2021/06/08 05:50:13;;;;;;;44.50;31.30;;;;;;;17.47;100.00;101371.25;5194953;28;20052;-78
2021/06/08 05:52:45;;;;;;;41.45;30.35;;;;;;;17.36;100.00;101370.94;5195959;28;20029;-78
2021/06/08 05:55:16;;;;;;;44.33;31.38;;;;;;;17.21;100.00;101363.75;5197724;28;20108;-78
2021/06/08 05:57:48;;;;;;;41.85;31.88;;;;;;;17.25;100.00;101374.09;5198825;28;20682;-78
2021/06/08 06:00:19;;;;;;;46.95;30.77;;;;;;;17.42;100.00;101376.78;5191151;28;20085;-79
2021/06/08 06:02:51;;;;;;;44.33;31.88;;;;;;;17.74;100.00;101383.03;5194581;28;20092;-78
2021/06/08 06:05:22;;;;;;;46.20;29.73;;;;;;;17.87;100.00;101384.13;5194608;28;20025;-78
2021/06/08 06:07:53;;;;;;;46.85;31.50;;;;;;;18.00;100.00;101377.25;5197214;28;20040;-78
2021/06/08 06:10:24;;;;;;;45.13;29.73;;;;;;;17.92;100.00;101382.06;5195547;28;20033;-78
2021/06/08 06:12:55;;;;;;;42.63;30.75;;;;;;;18.08;100.00;101388.25;5192759;28;20037;-78
2021/06/08 06:15:28;;;;;;;54.15;33.90;;;;;;;17.53;100.00;101384.16;5194478;28;20524;-77
2021/06/08 06:17:59;;;;;;;45.95;31.42;;;;;;;17.89;100.00;101384.88;5192997;28;20603;-78
2021/06/08 06:20:29;;;;;;;51.45;36.50;;;;;;;17.70;100.00;101386.78;5195123;28;20037;-77
2021/06/08 06:23:00;;;;;;;53.45;35.53;;;;;;;17.89;100.00;101390.19;5192143;28;20460;-78
2021/06/08 06:25:31;;;;;;;52.88;34.50;;;;;;;17.55;100.00;101392.84;5195078;28;20029;-78
2021/06/08 06:28:02;;;;;;;48.60;34.72;;;;;;;17.90;100.00;101394.53;5194422;28;20029;-78
2021/06/08 06:30:33;;;;;;;46.90;34.60;;;;;;;17.85;100.00;101386.81;5192072;28;20018;-78
2021/06/08 06:33:04;;;;;;;59.85;39.75;;;;;;;17.94;100.00;101391.66;5191411;28;20041;-77
2021/06/08 06:35:34;;;;;;;62.90;39.25;;;;;;;18.18;100.00;101402.72;5177277;28;20025;-77
2021/06/08 06:38:07;;;;;;;61.08;37.38;;;;;;;18.09;100.00;101395.25;5188495;28;20373;-77
2021/06/08 06:40:39;;;;;;;46.47;32.85;;;;;;;18.12;100.00;101398.59;5196778;28;20499;-77
2021/06/08 06:43:15;;;;;;;42.97;31.25;;;;;;;18.16;100.00;101401.94;5191682;28;20037;-78
2021/06/08 06:45:45;;;;;;;46.25;34.03;;;;;;;17.89;100.00;101393.69;5189863;28;20069;-78
2021/06/08 06:48:16;;;;;;;45.53;31.83;;;;;;;17.85;100.00;101402.69;5195937;28;20045;-78
2021/06/08 06:50:47;;;;;;;47.22;33.72;;;;;;;17.87;100.00;101397.34;5194467;28;20026;-77
2021/06/08 06:53:18;;;;;;;49.92;35.65;;;;;;;18.13;100.00;101402.09;5193248;28;20026;-77
2021/06/08 06:55:50;;;;;;;40.15;30.77;;;;;;;18.01;100.00;101397.47;5195412;28;20033;-78
2021/06/08 06:58:22;;;;;;;49.00;33.08;;;;;;;18.03;100.00;101400.88;5194564;28;20040;-78
2021/06/08 07:00:54;;;;;;;46.72;33.35;;;;;;;17.75;100.00;101395.31;5187011;28;20038;-77
2021/06/08 07:03:29;;;;;;;47.00;34.17;;;;;;;18.31;100.00;101395.88;5189382;28;20030;-78
2021/06/08 07:06:01;;;;;;;40.33;29.25;;;;;;;18.16;100.00;101394.84;5194523;28;20034;-78
2021/06/08 07:08:32;;;;;;;42.22;31.17;;;;;;;18.16;100.00;101401.94;5179670;28;20042;-77
2021/06/08 07:11:03;;;;;;;41.90;31.48;;;;;;;18.30;100.00;101400.31;5183947;28;20398;-78
2021/06/08 07:13:33;;;;;;;41.58;29.63;;;;;;;18.08;100.00;101404.13;5182946;28;20041;-78
2021/06/08 07:16:04;;;;;;;38.78;29.13;;;;;;;18.32;100.00;101408.16;5195015;28;20560;-77
2021/06/08 07:18:34;;;;;;;38.78;29.58;;;;;;;18.39;100.00;101404.25;5189953;28;20061;-78
2021/06/08 07:21:06;;;;;;;40.03;30.60;;;;;;;18.23;100.00;101406.84;5180735;28;20021;-78
2021/06/08 07:23:36;;;;;;;44.40;30.73;;;;;;;18.15;100.00;101409.03;5181070;28;20022;-78
2021/06/08 07:26:07;;;;;;;43.25;31.17;;;;;;;18.06;100.00;101406.00;5184349;28;20025;-79
2021/06/08 07:28:38;;;;;;;43.67;31.13;;;;;;;18.31;100.00;101404.66;5188381;28;20459;-77
2021/06/08 07:31:13;;;;;;;42.47;31.90;;;;;;;18.40;100.00;101405.94;5187778;28;20088;-77
2021/06/08 07:34:01;;;;;;;42.13;31.48;;;;;;;18.27;100.00;101405.75;5186928;28;20026;-77
2021/06/08 07:36:44;;;;;;;42.17;30.13;;;;;;;18.38;100.00;101413.97;5185729;28;20048;-77
2021/06/08 07:39:26;;;;;;;45.17;32.22;;;;;;;18.06;100.00;101413.94;5178237;28;20109;-77
2021/06/08 07:44:33;;;;;;;40.90;30.77;;;;;;;18.27;100.00;101415.44;5182697;28;20322;-80
2021/06/08 07:47:06;;;;;;;42.28;31.27;;;;;;;18.52;100.00;101413.22;5196394;28;20030;-80
2021/06/08 07:49:36;;;;;;;42.08;32.10;;;;;;;18.38;100.00;101413.13;5181986;28;20021;-80
2021/06/08 07:52:08;;;;;;;41.50;29.83;;;;;;;18.38;100.00;101418.41;5181692;28;20125;-80
2021/06/08 07:54:38;;;;;;;44.67;32.95;;;;;;;18.18;100.00;101414.16;5199561;28;20028;-80
2021/06/08 07:57:09;;;;;;;43.58;32.28;;;;;;;18.50;100.00;101420.41;5199553;28;20025;-79
2021/06/08 07:59:41;;;;;;;45.50;31.55;;;;;;;18.65;100.00;101411.63;5194455;28;20022;-79
2021/06/08 08:02:12;;;;;;;43.15;32.72;;;;;;;18.53;100.00;101417.59;5175567;28;20038;-80
2021/06/08 08:04:48;;;;;;;39.50;30.92;;;;;;;18.74;100.00;101418.09;5200679;28;20026;-80
2021/06/08 08:07:22;;;;;;;41.33;29.88;;;;;;;18.71;100.00;101420.06;5181119;28;20033;-79
2021/06/08 08:09:53;;;;;;;44.63;31.80;;;;;;;18.81;100.00;101416.84;5199642;28;20034;-80
2021/06/08 08:12:24;;;;;;;43.60;32.47;;;;;;;18.83;100.00;101425.56;5180413;28;20103;-79
2021/06/08 08:14:55;;;;;;;46.20;31.88;;;;;;;18.85;100.00;101418.38;5178761;28;20076;-79
2021/06/08 08:17:26;;;;;;;46.75;34.50;;;;;;;18.46;100.00;101425.00;5179579;28;20027;-80
2021/06/08 08:19:56;;;;;;;47.15;34.42;;;;;;;18.65;100.00;101428.34;5197769;28;20041;-80
2021/06/08 08:22:27;;;;;;;48.08;34.65;;;;;;;18.23;100.00;101429.78;5181803;28;20043;-79
2021/06/08 08:24:57;;;;;;;48.33;34.53;;;;;;;18.45;100.00;101430.38;5198924;28;20048;-80
2021/06/08 08:27:27;;;;;;;50.10;34.78;;;;;;;18.57;100.00;101427.06;5193973;28;20061;-79
2021/06/08 08:29:58;;;;;;;47.72;34.67;;;;;;;18.72;100.00;101424.41;5190085;28;20045;-80
2021/06/08 08:32:29;;;;;;;48.45;35.78;;;;;;;18.64;100.00;101421.34;5194257;28;20025;-80
2021/06/08 08:34:59;;;;;;;49.58;34.50;;;;;;;18.66;100.00;101424.75;5201319;28;20029;-79
2021/06/08 08:37:29;;;;;;;47.00;34.33;;;;;;;18.80;100.00;101423.06;5200057;28;20032;-80
2021/06/08 08:39:59;;;;;;;45.70;34.42;;;;;;;18.74;100.00;101426.06;5202452;28;20117;-80
2021/06/08 08:42:30;;;;;;;45.42;32.95;;;;;;;19.05;100.00;101418.09;5182477;28;20471;-80
2021/06/08 08:45:01;;;;;;;47.28;35.20;;;;;;;19.26;100.00;101416.06;5203462;28;20044;-80
2021/06/08 08:47:31;;;;;;;42.95;31.75;;;;;;;19.59;100.00;101416.75;5203409;28;20017;-80
2021/06/08 08:50:03;;;;;;;47.03;33.85;;;;;;;19.45;100.00;101414.88;5181790;28;20044;-79
2021/06/08 08:52:34;;;;;;;45.10;33.53;;;;;;;19.82;98.26;101418.88;5181808;28;20034;-80
2021/06/08 08:55:05;;;;;;;44.30;32.70;;;;;;;20.10;98.08;101408.31;5201498;28;20085;-80
2021/06/08 08:57:35;;;;;;;41.75;30.90;;;;;;;19.81;99.29;101414.50;5185240;28;20546;-80
2021/06/08 09:00:07;;;;;;;42.80;32.05;;;;;;;19.92;99.84;101406.75;5192871;28;20026;-80
2021/06/08 09:02:37;;;;;;;41.88;30.63;;;;;;;19.97;95.57;101412.63;5198571;28;20037;-79
2021/06/08 09:05:09;;;;;;;41.80;31.42;;;;;;;19.92;97.82;101407.59;5198627;28;20048;-79
2021/06/08 09:07:39;;;;;;;44.40;32.45;;;;;;;19.78;96.87;101407.56;5182273;28;20026;-80
2021/06/08 09:10:12;;;;;;;51.00;31.90;;;;;;;19.63;99.22;101407.66;5179058;28;20029;-80
2021/06/08 09:12:43;;;;;;;46.42;31.10;;;;;;;19.72;97.58;101410.59;5193717;28;20031;-80
2021/06/08 09:15:14;;;;;;;42.08;30.90;;;;;;;19.69;99.81;101408.13;5168996;28;20040;-80
2021/06/08 09:17:44;;;;;;;42.70;31.15;;;;;;;20.12;97.85;101409.91;5190929;28;20033;-80
2021/06/08 09:20:15;;;;;;;42.53;30.48;;;;;;;20.02;99.07;101408.78;5186793;28;20048;-80
2021/06/08 09:23:01;;;;;;;45.10;32.40;;;;;;;20.08;100.00;101405.75;5197621;28;20060;-80
2021/06/08 09:25:38;;;;;;;43.45;31.60;;;;;;;19.87;98.82;101415.00;5177958;28;20607;-79
2021/06/08 09:28:28;;;;;;;41.00;29.27;;;;;;;20.23;97.39;101411.91;5192800;28;20234;-79
2021/06/08 09:31:14;;;;;;;47.78;32.17;;;;;;;20.41;95.85;101416.94;5181818;28;20034;-80
2021/06/08 09:33:52;;;;;;;44.58;31.58;;;;;;;20.45;95.35;101410.47;5178688;28;20056;-80
2021/06/08 09:36:28;;;;;;;44.13;31.33;;;;;;;20.13;95.95;101416.94;5194280;28;20036;-80
2021/06/08 09:39:00;;;;;;;44.72;31.13;;;;;;;20.55;96.09;101414.28;5179591;28;20559;-80
2021/06/08 09:41:49;;;;;;;45.72;31.95;;;;;;;20.64;94.13;101407.53;5193160;28;20037;-79
2021/06/08 09:44:20;;;;;;;41.30;31.27;;;;;;;20.54;95.82;101409.91;5171376;28;20026;-78
2021/06/08 09:46:54;;;;;;;40.88;29.73;;;;;;;20.80;92.64;101409.97;5173689;28;20516;-80
2021/06/08 09:49:31;;;;;;;40.85;29.05;;;;;;;20.29;92.00;101412.38;5198032;28;20032;-81
2021/06/08 09:52:05;;;;;;;42.50;30.42;;;;;;;20.68;94.76;101409.88;5180563;28;20025;-80
2021/06/08 09:54:44;;;;;;;40.40;28.57;;;;;;;20.98;92.19;101407.94;5172292;28;20076;-77
2021/06/08 09:57:23;;;;;;;45.67;28.23;;;;;;;21.21;92.30;101405.47;5181696;28;20071;-79
2021/06/08 10:00:01;;;;;;;39.05;28.92;;;;;;;21.14;91.22;101404.19;5174005;28;20666;-80
2021/06/08 10:02:34;;;;;;;39.38;29.10;;;;;;;21.25;91.56;101403.47;5193897;28;20566;-81
2021/06/08 10:05:25;;;;;;;34.40;26.80;;;;;;;21.50;90.04;101395.53;5193127;28;20025;-77
2021/06/08 10:07:59;;;;;;;39.67;27.70;;;;;;;21.45;89.99;101397.66;5191382;28;20512;-81
2021/06/08 10:10:40;;;;;;;36.88;27.00;;;;;;;22.41;85.30;101397.13;5191244;28;20041;-81
2021/06/08 10:13:14;;;;;;;33.20;25.27;;;;;;;22.61;83.47;101385.03;5193628;28;20025;-79
2021/06/08 10:15:51;;;;;;;34.58;24.95;;;;;;;23.12;82.09;101384.75;5181935;28;20025;-80
2021/06/08 10:18:21;;;;;;;36.67;26.55;;;;;;;22.70;80.61;101388.72;5181464;28;20026;-79
2021/06/08 10:20:54;;;;;;;39.40;27.02;;;;;;;22.26;83.97;101394.66;5196161;28;20068;-77
2021/06/08 10:23:24;;;;;;;30.27;23.55;;;;;;;22.82;82.83;101382.50;5180384;28;20118;-80
2021/06/08 10:26:00;;;;;;;37.67;26.13;;;;;;;22.79;84.42;101384.53;5176464;28;20071;-78
2021/06/08 10:28:31;;;;;;;33.20;23.13;;;;;;;23.14;82.06;101377.47;5180660;28;20101;-79
2021/06/08 10:31:03;;;;;;;34.75;25.75;;;;;;;22.52;83.18;101373.22;5181993;28;20679;-79
2021/06/08 10:33:33;;;;;;;31.35;23.33;;;;;;;22.70;82.17;101375.41;5175591;28;20022;-79
2021/06/08 10:36:04;;;;;;;30.30;24.90;;;;;;;22.98;81.91;101367.09;5182409;28;20030;-78
2021/06/08 10:38:35;;;;;;;32.80;24.48;;;;;;;23.29;80.61;101361.19;5191930;28;20510;-79
2021/06/08 10:41:05;;;;;;;32.75;24.70;;;;;;;22.79;81.82;101361.41;5201023;28;20061;-78
2021/06/08 10:43:37;;;;;;;30.83;21.83;;;;;;;23.46;82.70;101360.78;5178106;28;20116;-78
2021/06/08 10:46:25;;;;;;;33.22;23.85;;;;;;;23.39;79.42;101350.69;5176378;28;20101;-79
2021/06/08 10:48:56;;;;;;;27.33;21.90;;;;;;;23.10;80.87;101349.31;5172725;28;20067;-79
2021/06/08 10:51:29;;;;;;;31.48;21.73;;;;;;;23.20;81.82;101358.38;5177931;28;20052;-79
2021/06/08 10:53:59;;;;;;;25.90;21.27;;;;;;;23.28;81.15;101351.50;5174651;28;20104;-80
2021/06/08 10:56:32;;;;;;;27.15;19.83;;;;;;;23.59;79.18;101350.84;5194103;28;20052;-80
2021/06/08 10:59:11;;;;;;;26.35;20.25;;;;;;;23.54;77.06;101353.00;5191099;28;20052;-78
2021/06/08 11:01:42;;;;;;;25.73;19.15;;;;;;;23.42;79.31;101340.63;5184714;28;20038;-80
2021/06/08 11:04:20;;;;;;;23.55;18.67;;;;;;;23.39;79.04;101338.16;5170209;28;20095;-80
2021/06/08 11:06:57;;;;;;;26.95;18.92;;;;;;;23.65;77.53;101337.03;5194343;28;20029;-80
2021/06/08 11:09:32;;;;;;;24.23;18.98;;;;;;;24.03;79.97;101342.91;5191831;28;20021;-80
2021/06/08 11:12:08;;;;;;;28.10;18.85;;;;;;;23.89;78.48;101340.47;5197459;28;20029;-80
2021/06/08 11:14:43;;;;;;;21.70;17.17;;;;;;;23.88;79.71;101341.44;5192374;28;20040;-80
2021/06/08 11:17:33;;;;;;;20.67;16.70;;;;;;;24.01;78.53;101347.53;5180581;28;20031;-79
2021/06/08 11:20:12;;;;;;;24.15;18.10;;;;;;;23.24;77.71;101336.69;5179980;28;20037;-80
2021/06/08 11:22:52;;;;;;;25.35;19.63;;;;;;;22.41;80.76;101338.50;5191226;28;20030;-80
2021/06/08 11:25:37;;;;;;;24.70;19.25;;;;;;;22.49;81.44;101345.94;5179350;28;20025;-79
2021/06/08 11:28:13;;;;;;;21.95;17.80;;;;;;;23.04;80.83;101334.59;5195128;28;20248;-79
2021/06/08 11:30:52;;;;;;;24.45;18.55;;;;;;;22.88;77.61;101331.38;5179929;28;20395;-80
2021/06/08 11:33:37;;;;;;;20.10;16.42;;;;;;;22.88;78.20;101339.38;5194428;28;20022;-79